This is the latest recevied weather packets stored in our database for station/object ka8upw-1. If no packets are shown the sender has not sent any weather packets the latest 10 day(s).
| Time | Temp. | Humidity | Pressure | Rain* | Wind** | Luminosity | Snow |
|---|---|---|---|---|---|---|---|
| 1778110563 | 10.56° C | 60% | 1011.1 hPa | 0 mm | - | - | - |
| 1778110023 | 11.11° C | 59% | 1011.2 hPa | 0 mm | - | - | - |
| 1778108943 | 11.11° C | 59% | 1011.3 hPa | 0 mm | - | - | - |
| 1778107504 | 11.11° C | 60% | 1011 hPa | 0 mm | - | - | - |
| 1778106558 | 11.11° C | 58% | 1011 hPa | 0 mm | - | - | - |
| 1778105343 | 11.67° C | 57% | 1011.1 hPa | 0 mm | - | - | - |
| 1778102421 | 12.22° C | 56% | 1010.5 hPa | 0 mm | - | - | - |
| 1778101205 | 12.22° C | 55% | 1010.3 hPa | 0 mm | - | - | - |
| 1778100843 | 12.22° C | 55% | 1010.2 hPa | 0 mm | - | - | - |
| 1778098143 | 12.22° C | 57% | 1010.5 hPa | 0 mm | - | - | - |
| 1778095623 | 12.22° C | 56% | 1010.3 hPa | 0 mm | - | - | - |
| 1778092564 | 12.78° C | 55% | 1010.4 hPa | 0 mm | - | - | - |
| 1778092023 | 12.78° C | 55% | 1010.4 hPa | 0 mm | - | - | - |
| 1778090943 | 13.33° C | 55% | 1010.2 hPa | 0 mm | - | - | - |
| 1778090406 | 13.33° C | 55% | 1010.1 hPa | 0 mm | - | - | - |
| 1778090043 | 13.33° C | 57% | 1010.2 hPa | 0 mm | - | - | - |
| 1778083339 | 12.22° C | 65% | 1010 hPa | 0 mm | - | - | - |
| 1778080144 | 11.11° C | 76% | 1009.6 hPa | 0 mm | - | - | - |
| 1778078163 | 10° C | 79% | 1009.2 hPa | 0 mm | - | - | - |
| 1778076678 | 8.89° C | 82% | 1009 hPa | 0 mm | - | - | - |
| 1778075644 | 8.33° C | 84% | 1009.2 hPa | 0 mm | - | - | - |
| 1778070423 | 6.11° C | 95% | 1008.3 hPa | 0.25 mm | - | - | - |
| 1778066823 | 6.67° C | 95% | 1007.3 hPa | 0 mm | - | - | - |
| 1778058545 | 6.67° C | 95% | 1005.8 hPa | 0.51 mm | - | - | - |
| 1778058005 | 6.67° C | 95% | 1006.4 hPa | 0.51 mm | - | - | - |
* Rain latest hour (hover to see other rain measurements)
** Current wind speed in m/s (hover to see current wind gust speed)